createdAt,value
2017-08-31T00:01:16.729Z,5.87
2017-08-31T00:03:44.351Z,5.10
2017-08-31T00:06:11.961Z,5.63
2017-08-31T00:08:39.609Z,5.30
2017-08-31T00:11:07.268Z,5.80
2017-08-31T00:13:34.883Z,6.50
2017-08-31T00:16:02.548Z,6.47
2017-08-31T00:18:30.180Z,6.13
2017-08-31T00:20:57.797Z,5.40
2017-08-31T00:23:25.480Z,5.80
2017-08-31T00:25:53.319Z,5.47
2017-08-31T00:28:20.924Z,6.00
2017-08-31T00:30:48.572Z,5.60
2017-08-31T00:33:16.243Z,5.73
2017-08-31T00:35:43.868Z,5.97
2017-08-31T00:38:11.519Z,6.37
2017-08-31T00:40:39.140Z,5.13
2017-08-31T00:43:06.757Z,6.10
2017-08-31T00:45:34.434Z,5.13
2017-08-31T00:48:02.064Z,5.77
2017-08-31T00:50:29.671Z,6.20
2017-08-31T00:52:57.342Z,7.63
2017-08-31T00:55:24.973Z,5.80
2017-08-31T00:57:52.583Z,5.07
2017-08-31T01:00:20.224Z,5.60
2017-08-31T01:02:47.848Z,6.50
2017-08-31T01:05:15.505Z,6.80
2017-08-31T01:07:43.159Z,6.10
2017-08-31T01:10:10.767Z,6.50
2017-08-31T01:12:38.394Z,6.37
2017-08-31T01:15:06.192Z,6.80
2017-08-31T01:17:33.804Z,6.33
2017-08-31T01:20:01.425Z,6.17
2017-08-31T01:22:29.439Z,7.33
2017-08-31T01:24:57.274Z,6.53
2017-08-31T01:27:25.184Z,9.47
2017-08-31T01:29:52.829Z,6.27
2017-08-31T01:32:20.443Z,7.73
2017-08-31T01:34:48.108Z,7.40
2017-08-31T01:37:15.792Z,7.77
2017-08-31T01:39:43.412Z,8.77
2017-08-31T01:42:11.037Z,8.10
2017-08-31T01:44:38.699Z,7.90
2017-08-31T01:47:06.441Z,8.20
2017-08-31T01:49:34.057Z,8.90
2017-08-31T01:52:01.700Z,9.70
2017-08-31T01:54:29.300Z,8.20
2017-08-31T01:56:56.914Z,8.40
2017-08-31T01:59:24.553Z,7.93
2017-08-31T02:01:52.168Z,8.30
2017-08-31T02:04:19.806Z,7.63
2017-08-31T02:06:47.459Z,8.17
2017-08-31T02:09:15.068Z,10.00
2017-08-31T02:11:42.684Z,6.53
2017-08-31T02:14:10.328Z,9.33
2017-08-31T02:16:37.946Z,6.10
2017-08-31T02:19:05.609Z,6.60
2017-08-31T02:21:33.364Z,6.97
2017-08-31T02:24:00.967Z,7.03
2017-08-31T02:26:28.587Z,6.03
2017-08-31T02:28:56.305Z,5.97
2017-08-31T02:31:23.922Z,6.00
2017-08-31T02:33:51.527Z,6.50
2017-08-31T02:36:19.160Z,5.97
2017-08-31T02:38:46.773Z,6.03
2017-08-31T02:41:14.406Z,7.10
2017-08-31T02:43:42.045Z,5.23
2017-08-31T02:46:09.801Z,4.80
2017-08-31T02:48:37.612Z,5.27
2017-08-31T02:51:05.271Z,4.87
2017-08-31T02:53:32.904Z,3.87
2017-08-31T02:56:00.728Z,4.20
2017-08-31T02:58:28.385Z,5.23
2017-08-31T03:00:56.183Z,4.50
2017-08-31T03:03:23.797Z,4.97
2017-08-31T03:05:51.445Z,3.40
2017-08-31T03:08:19.061Z,4.43
2017-08-31T03:10:46.668Z,4.40
2017-08-31T03:13:14.331Z,3.40
2017-08-31T03:15:41.941Z,5.23
2017-08-31T03:18:09.556Z,3.10
2017-08-31T03:20:37.259Z,3.03
2017-08-31T03:23:04.875Z,3.40
2017-08-31T03:25:32.488Z,3.10
2017-08-31T03:28:00.126Z,3.73
2017-08-31T03:30:27.744Z,2.87
2017-08-31T03:32:55.350Z,3.50
2017-08-31T03:35:23.005Z,3.13
2017-08-31T03:37:50.614Z,3.20
2017-08-31T03:40:18.215Z,3.47
2017-08-31T03:42:45.864Z,3.20
2017-08-31T03:45:13.476Z,3.60
2017-08-31T03:47:41.091Z,4.33
2017-08-31T03:50:08.737Z,3.13
2017-08-31T03:52:36.556Z,3.20
2017-08-31T03:55:04.174Z,3.97
2017-08-31T03:57:31.893Z,4.40
2017-08-31T03:59:59.496Z,4.00
2017-08-31T04:02:27.121Z,4.90
2017-08-31T04:04:54.768Z,3.97
2017-08-31T04:07:22.378Z,4.00
2017-08-31T04:09:49.993Z,4.60
2017-08-31T04:12:17.710Z,4.83
2017-08-31T04:14:45.335Z,3.37
2017-08-31T04:17:12.935Z,5.63
2017-08-31T04:19:40.590Z,4.50
2017-08-31T04:22:08.209Z,4.53
2017-08-31T04:24:35.821Z,4.00
2017-08-31T04:27:03.480Z,5.00
2017-08-31T04:29:31.093Z,4.77
2017-08-31T04:31:58.707Z,3.80
2017-08-31T04:34:26.591Z,4.57
2017-08-31T04:36:54.221Z,4.67
2017-08-31T04:39:21.852Z,4.50
2017-08-31T04:41:49.496Z,4.03
2017-08-31T04:44:17.279Z,3.40
2017-08-31T04:46:44.912Z,4.97
2017-08-31T04:49:12.549Z,3.80
2017-08-31T04:51:40.159Z,4.53
2017-08-31T04:54:07.756Z,3.97
2017-08-31T04:56:35.447Z,4.20
2017-08-31T04:59:03.046Z,3.93
2017-08-31T05:01:30.667Z,4.60
2017-08-31T05:03:58.313Z,4.93
2017-08-31T05:06:25.957Z,3.63
2017-08-31T05:08:53.580Z,3.70
2017-08-31T05:11:21.629Z,4.37
2017-08-31T05:13:49.240Z,4.40
2017-08-31T05:16:16.847Z,5.20
2017-08-31T05:18:44.506Z,5.43
2017-08-31T05:21:12.124Z,5.80
2017-08-31T05:23:39.754Z,4.50
2017-08-31T05:26:07.408Z,4.93
2017-08-31T05:28:35.019Z,5.10
2017-08-31T05:31:02.636Z,4.90
2017-08-31T05:33:30.291Z,4.33
2017-08-31T05:35:57.891Z,5.57
2017-08-31T05:38:25.511Z,5.83
2017-08-31T05:40:53.258Z,5.20
2017-08-31T05:43:20.873Z,4.77
2017-08-31T05:45:48.488Z,5.07
2017-08-31T05:48:16.177Z,4.37
2017-08-31T05:50:43.786Z,4.73
2017-08-31T05:53:11.411Z,5.03
2017-08-31T05:55:39.323Z,6.57
2017-08-31T05:58:06.941Z,5.33
2017-08-31T06:00:34.612Z,5.70
2017-08-31T06:03:02.482Z,6.60
2017-08-31T06:05:30.296Z,4.60
2017-08-31T06:07:57.899Z,4.40
2017-08-31T06:10:25.742Z,4.67
2017-08-31T06:12:53.351Z,4.37
2017-08-31T06:15:20.955Z,5.03
2017-08-31T06:17:48.607Z,5.90
2017-08-31T06:20:16.230Z,5.27
2017-08-31T06:22:43.849Z,6.07
2017-08-31T06:25:11.588Z,7.53
2017-08-31T06:27:39.197Z,5.57
2017-08-31T06:30:06.822Z,5.80
2017-08-31T06:32:34.469Z,5.50
2017-08-31T06:35:02.072Z,6.13
2017-08-31T06:37:29.687Z,6.67
2017-08-31T06:39:57.333Z,6.57
2017-08-31T06:42:24.936Z,7.37
2017-08-31T06:44:52.565Z,5.40
2017-08-31T06:47:20.209Z,5.00
2017-08-31T06:49:47.810Z,4.73
2017-08-31T06:52:15.413Z,5.40
2017-08-31T06:54:43.057Z,4.50
2017-08-31T06:57:10.681Z,5.37
2017-08-31T06:59:38.296Z,4.97
2017-08-31T07:02:05.933Z,5.17
2017-08-31T07:04:33.549Z,4.87
2017-08-31T07:07:01.160Z,5.53
2017-08-31T07:09:28.799Z,3.63
2017-08-31T07:11:56.579Z,4.33
2017-08-31T07:14:24.203Z,4.87
2017-08-31T07:16:51.844Z,4.60
2017-08-31T07:19:19.455Z,4.57
2017-08-31T07:21:47.225Z,4.33
2017-08-31T07:24:14.859Z,4.90
2017-08-31T07:26:42.620Z,5.40
2017-08-31T07:29:10.241Z,4.50
2017-08-31T07:31:37.890Z,6.27
2017-08-31T07:34:05.505Z,5.07
2017-08-31T07:36:33.206Z,4.30
2017-08-31T07:39:00.849Z,5.77
2017-08-31T07:41:28.465Z,5.03
2017-08-31T07:43:56.126Z,5.10
2017-08-31T07:46:23.764Z,4.77
2017-08-31T07:48:51.368Z,4.83
2017-08-31T07:51:18.978Z,4.53
2017-08-31T07:53:46.673Z,4.93
2017-08-31T07:56:14.283Z,6.13
2017-08-31T07:58:41.890Z,6.27
2017-08-31T08:01:09.546Z,6.47
2017-08-31T08:03:37.266Z,9.87
2017-08-31T08:06:04.877Z,6.60
2017-08-31T08:08:32.508Z,6.13
2017-08-31T08:11:00.123Z,5.47
2017-08-31T08:13:27.753Z,6.30
2017-08-31T08:15:55.392Z,5.20
2017-08-31T08:18:23.050Z,6.13
2017-08-31T08:20:50.669Z,5.23
2017-08-31T08:23:18.321Z,5.33
2017-08-31T08:25:46.008Z,5.40
2017-08-31T08:28:13.619Z,6.07
2017-08-31T08:30:41.262Z,5.33
2017-08-31T08:33:08.884Z,5.00
2017-08-31T08:35:36.578Z,5.40
2017-08-31T08:38:04.213Z,5.37
2017-08-31T08:40:31.825Z,6.03
2017-08-31T08:42:59.486Z,5.57
2017-08-31T08:45:27.153Z,6.17
2017-08-31T08:47:54.791Z,6.50
2017-08-31T08:50:22.390Z,5.40
2017-08-31T08:52:50.046Z,7.27
2017-08-31T08:55:17.813Z,6.60
2017-08-31T08:57:45.433Z,6.90
2017-08-31T09:00:13.346Z,4.87
2017-08-31T09:02:40.942Z,5.07
2017-08-31T09:05:08.569Z,4.77
2017-08-31T09:07:36.278Z,5.33
2017-08-31T09:10:03.890Z,5.10
2017-08-31T09:12:31.487Z,6.43
2017-08-31T09:14:59.128Z,5.70
2017-08-31T09:17:26.740Z,4.77
2017-08-31T09:19:54.331Z,5.70
2017-08-31T09:22:21.975Z,6.87
2017-08-31T09:24:49.591Z,5.00
2017-08-31T09:27:17.274Z,5.23
2017-08-31T09:29:44.929Z,2.57
2017-08-31T09:32:12.537Z,2.47
2017-08-31T09:38:11.095Z,2.17
2017-08-31T09:40:38.709Z,4.40
2017-08-31T09:43:06.507Z,3.10
2017-08-31T09:45:34.145Z,3.70
2017-08-31T09:48:01.757Z,3.20
2017-08-31T09:50:29.368Z,3.17
2017-08-31T09:52:57.022Z,2.30
2017-08-31T09:55:24.627Z,3.07
2017-08-31T09:57:52.231Z,2.23
2017-08-31T10:00:19.898Z,2.03
2017-08-31T10:02:47.574Z,4.00
2017-08-31T10:05:15.198Z,3.30
2017-08-31T10:07:42.845Z,3.00
2017-08-31T10:10:11.478Z,2.43
2017-08-31T10:12:39.089Z,3.77
2017-08-31T10:15:06.741Z,4.50
2017-08-31T10:17:34.356Z,6.30
2017-08-31T10:20:01.968Z,2.83
2017-08-31T10:22:29.619Z,3.33
2017-08-31T10:24:57.303Z,2.67
2017-08-31T10:27:24.914Z,2.90
2017-08-31T10:29:52.559Z,3.07
2017-08-31T10:32:20.181Z,3.37
2017-08-31T10:34:47.792Z,2.80
2017-08-31T10:37:15.441Z,2.73
2017-08-31T10:39:43.069Z,3.20
2017-08-31T10:42:10.676Z,2.73
2017-08-31T10:44:38.324Z,3.70
2017-08-31T10:47:06.269Z,3.77
2017-08-31T10:49:33.869Z,2.73
2017-08-31T10:52:01.512Z,3.00
2017-08-31T10:54:29.152Z,3.60
2017-08-31T10:56:56.787Z,2.77
2017-08-31T10:59:24.459Z,2.97
2017-08-31T11:01:52.072Z,3.83
2017-08-31T11:04:19.679Z,3.00
2017-08-31T11:06:47.359Z,3.33
2017-08-31T11:09:14.955Z,3.33
2017-08-31T11:11:42.585Z,3.57
2017-08-31T11:14:10.236Z,2.83
2017-08-31T11:16:37.832Z,2.87
2017-08-31T11:19:05.442Z,4.60
2017-08-31T11:21:33.108Z,3.27
2017-08-31T11:24:00.713Z,3.90
2017-08-31T11:26:28.331Z,3.90
2017-08-31T11:28:56.089Z,6.07
2017-08-31T11:31:23.687Z,2.90
2017-08-31T11:33:51.332Z,3.07
2017-08-31T11:36:18.994Z,3.27
2017-08-31T11:38:46.695Z,3.30
2017-08-31T11:41:14.314Z,3.33
2017-08-31T11:43:41.955Z,3.57
2017-08-31T11:46:09.573Z,4.60
2017-08-31T11:48:37.270Z,4.40
2017-08-31T11:51:04.915Z,4.00
2017-08-31T11:53:32.521Z,5.57
2017-08-31T11:56:00.138Z,4.57
2017-08-31T11:58:27.842Z,3.77
2017-08-31T12:00:55.451Z,2.73
2017-08-31T12:03:23.093Z,3.60
2017-08-31T12:05:50.727Z,3.47
2017-08-31T12:08:18.366Z,4.93
2017-08-31T12:10:46.049Z,3.83
2017-08-31T12:13:13.706Z,7.73
2017-08-31T12:15:41.315Z,4.53
2017-08-31T12:18:08.962Z,6.80
2017-08-31T12:20:36.646Z,5.33
2017-08-31T12:23:04.255Z,4.23
2017-08-31T12:25:31.886Z,17.00
2017-08-31T12:27:59.568Z,6.30
2017-08-31T12:30:27.198Z,6.53
2017-08-31T12:32:54.815Z,4.30
2017-08-31T12:35:22.712Z,4.23
2017-08-31T12:37:50.317Z,5.60
2017-08-31T12:40:17.915Z,4.07
2017-08-31T12:42:47.291Z,6.53
2017-08-31T12:45:14.905Z,5.90
2017-08-31T12:47:42.527Z,7.10
2017-08-31T12:50:10.176Z,3.93
2017-08-31T12:52:37.790Z,4.23
2017-08-31T12:55:05.397Z,3.83
2017-08-31T12:57:33.032Z,3.50
2017-08-31T13:00:00.650Z,4.83
2017-08-31T13:02:28.268Z,5.10
2017-08-31T13:04:55.909Z,3.60
2017-08-31T13:07:23.525Z,4.63
2017-08-31T13:09:51.121Z,4.20
2017-08-31T13:12:19.537Z,4.37
2017-08-31T13:14:47.265Z,4.40
2017-08-31T13:17:14.890Z,4.60
2017-08-31T13:19:42.569Z,5.90
2017-08-31T13:22:10.230Z,5.10
2017-08-31T13:24:37.835Z,6.40
2017-08-31T13:27:05.540Z,4.73
2017-08-31T13:29:33.335Z,5.43
2017-08-31T13:32:00.944Z,6.90
2017-08-31T13:34:28.589Z,5.67
2017-08-31T13:36:56.293Z,5.13
2017-08-31T13:39:23.903Z,6.60
2017-08-31T13:41:51.549Z,4.53
2017-08-31T13:44:19.174Z,4.77
2017-08-31T13:46:46.790Z,6.50
2017-08-31T13:49:14.465Z,4.20
2017-08-31T13:51:42.103Z,5.70
2017-08-31T13:54:09.724Z,7.17
2017-08-31T13:56:37.385Z,4.50
2017-08-31T13:59:05.001Z,5.47
2017-08-31T14:01:32.661Z,6.10
2017-08-31T14:04:00.316Z,5.10
2017-08-31T14:06:27.937Z,4.63
2017-08-31T14:08:55.569Z,7.77
2017-08-31T14:11:23.299Z,7.53
2017-08-31T14:13:50.909Z,6.70
2017-08-31T14:16:18.529Z,6.83
2017-08-31T14:18:46.258Z,8.80
2017-08-31T14:21:13.890Z,10.43
2017-08-31T14:23:41.521Z,8.40
2017-08-31T14:26:09.178Z,9.83
2017-08-31T14:28:36.791Z,7.13
2017-08-31T14:31:04.417Z,7.00
2017-08-31T14:33:32.054Z,7.37
2017-08-31T14:35:59.681Z,8.30
2017-08-31T14:38:27.297Z,10.20
2017-08-31T14:40:54.945Z,8.57
2017-08-31T14:43:22.565Z,9.33
2017-08-31T14:45:50.183Z,9.63
2017-08-31T14:48:20.745Z,10.40
2017-08-31T14:50:48.365Z,8.90
2017-08-31T14:53:16.008Z,7.03
2017-08-31T14:55:43.639Z,8.13
2017-08-31T14:58:11.252Z,6.13
2017-08-31T15:00:38.861Z,7.37
2017-08-31T15:03:06.591Z,7.37
2017-08-31T15:05:34.223Z,7.30
2017-08-31T15:08:01.836Z,7.27
2017-08-31T15:10:29.471Z,8.97
2017-08-31T15:12:57.087Z,7.77
2017-08-31T15:15:24.691Z,6.30
2017-08-31T15:17:52.384Z,8.90
2017-08-31T15:20:19.992Z,7.17
2017-08-31T15:22:47.656Z,4.53
2017-08-31T15:25:15.305Z,3.53
2017-08-31T15:27:42.909Z,2.97
2017-08-31T15:30:10.540Z,1.97
2017-08-31T15:32:38.179Z,2.67
2017-08-31T15:35:05.796Z,3.50
2017-08-31T15:37:33.417Z,3.00
2017-08-31T15:40:01.067Z,2.40
2017-08-31T15:42:28.687Z,3.00
2017-08-31T15:44:56.307Z,2.63
2017-08-31T15:47:23.944Z,3.17
2017-08-31T15:49:51.559Z,3.10
2017-08-31T15:52:19.185Z,2.93
2017-08-31T15:54:46.834Z,2.60
2017-08-31T15:57:14.440Z,2.60
2017-08-31T15:59:42.062Z,3.47
2017-08-31T16:02:09.721Z,4.13
2017-08-31T16:04:37.344Z,2.97
2017-08-31T16:07:04.956Z,3.07
2017-08-31T16:09:32.605Z,2.10
2017-08-31T16:12:00.236Z,2.03
2017-08-31T16:14:27.873Z,3.10
2017-08-31T16:16:55.577Z,4.27
2017-08-31T16:19:23.441Z,3.47
2017-08-31T16:21:51.195Z,4.83
2017-08-31T16:24:18.878Z,4.33
2017-08-31T16:26:46.513Z,3.27
2017-08-31T16:29:14.279Z,3.17
2017-08-31T16:31:41.940Z,4.70
2017-08-31T16:34:09.626Z,4.40
2017-08-31T16:36:37.275Z,5.17
2017-08-31T16:39:04.939Z,5.37
2017-08-31T16:41:33.697Z,5.00
2017-08-31T16:44:01.565Z,4.33
2017-08-31T16:46:29.242Z,3.47
2017-08-31T16:48:56.883Z,3.93
2017-08-31T16:51:24.637Z,4.53
2017-08-31T16:53:52.275Z,5.47
2017-08-31T16:56:19.900Z,4.67
2017-08-31T16:58:47.729Z,5.10
2017-08-31T17:01:15.376Z,4.77
2017-08-31T17:03:43.018Z,4.93
2017-08-31T17:06:10.757Z,5.60
2017-08-31T17:08:38.391Z,5.30
2017-08-31T17:11:06.092Z,7.90
2017-08-31T17:13:33.717Z,8.03
2017-08-31T17:16:01.368Z,8.13
2017-08-31T17:18:28.985Z,9.13
2017-08-31T17:20:56.611Z,6.03
2017-08-31T17:23:24.268Z,7.10
2017-08-31T17:25:51.896Z,6.10
2017-08-31T17:28:19.518Z,7.13
2017-08-31T17:30:47.193Z,8.30
2017-08-31T17:33:14.835Z,7.75
2017-08-31T17:35:42.470Z,9.32
2017-08-31T17:38:10.146Z,8.20
2017-08-31T17:40:37.773Z,9.97
2017-08-31T17:43:05.409Z,7.35
2017-08-31T17:45:33.071Z,8.90
2017-08-31T17:48:00.829Z,6.97
2017-08-31T17:50:28.481Z,6.85
2017-08-31T17:52:56.174Z,7.35
2017-08-31T17:55:23.920Z,8.15
2017-08-31T17:57:51.551Z,6.80
2017-08-31T18:00:19.220Z,6.72
2017-08-31T18:02:46.873Z,6.50
2017-08-31T18:05:14.522Z,7.07
2017-08-31T18:07:42.196Z,6.80
2017-08-31T18:10:09.872Z,6.25
2017-08-31T18:12:37.522Z,8.55
2017-08-31T18:15:05.196Z,9.77
2017-08-31T18:17:32.839Z,8.85
2017-08-31T18:20:00.482Z,6.53
2017-08-31T18:22:28.140Z,7.55
2017-08-31T18:24:55.768Z,7.03
2017-08-31T18:27:23.405Z,10.60
2017-08-31T18:29:51.083Z,9.70
2017-08-31T18:32:18.712Z,9.45
2017-08-31T18:34:46.358Z,12.45
2017-08-31T18:37:14.037Z,12.15
2017-08-31T18:39:41.673Z,9.68
2017-08-31T18:42:09.405Z,9.10
2017-08-31T18:44:38.839Z,10.65
2017-08-31T18:47:06.476Z,12.35
2017-08-31T18:49:34.843Z,12.98
2017-08-31T18:52:02.520Z,14.60
2017-08-31T18:54:30.173Z,14.43
2017-08-31T18:56:57.812Z,12.45
2017-08-31T18:59:25.490Z,14.55
2017-08-31T19:01:53.127Z,11.80
2017-08-31T19:04:20.773Z,13.50
2017-08-31T19:06:48.445Z,12.68
2017-08-31T19:09:16.085Z,12.90
2017-08-31T19:11:43.723Z,12.70
2017-08-31T19:14:11.409Z,13.05
2017-08-31T19:16:39.057Z,16.67
2017-08-31T19:19:06.705Z,15.35
2017-08-31T19:21:34.367Z,13.30
2017-08-31T19:24:02.013Z,11.93
2017-08-31T19:26:29.652Z,12.93
2017-08-31T19:28:57.328Z,15.40
2017-08-31T19:31:24.973Z,15.02
2017-08-31T19:33:52.614Z,13.13
2017-08-31T19:36:20.298Z,14.50
2017-08-31T19:38:47.945Z,12.77
2017-08-31T19:41:15.580Z,12.70
2017-08-31T19:43:43.257Z,14.73
2017-08-31T19:46:10.905Z,13.32
2017-08-31T19:48:38.548Z,11.68
2017-08-31T19:51:06.212Z,10.38
2017-08-31T19:53:33.868Z,12.23
2017-08-31T19:56:01.509Z,11.55
2017-08-31T19:58:29.172Z,13.55
2017-08-31T20:00:56.824Z,13.48
2017-08-31T20:03:24.464Z,11.77
2017-08-31T20:05:52.148Z,14.15
2017-08-31T20:08:19.793Z,12.25
2017-08-31T20:10:47.437Z,12.15
2017-08-31T20:13:15.111Z,12.25
2017-08-31T20:15:42.743Z,11.52
2017-08-31T20:18:10.374Z,9.48
2017-08-31T20:20:38.071Z,10.23
2017-08-31T20:23:05.899Z,12.60
2017-08-31T20:25:33.735Z,11.25
2017-08-31T20:28:01.409Z,10.45
2017-08-31T20:30:29.047Z,9.15
2017-08-31T20:32:56.691Z,10.23
2017-08-31T20:35:24.464Z,9.65
2017-08-31T20:37:52.177Z,9.40
2017-08-31T20:40:20.100Z,9.20
2017-08-31T20:42:47.809Z,10.93
2017-08-31T20:45:15.467Z,9.30
2017-08-31T20:47:43.119Z,11.35
2017-08-31T20:50:11.540Z,11.77
2017-08-31T20:52:39.205Z,11.52
2017-08-31T20:55:06.849Z,10.93
2017-08-31T20:57:34.876Z,11.20
2017-08-31T21:00:02.520Z,8.50
2017-08-31T21:02:30.583Z,10.05
2017-08-31T21:05:01.713Z,11.85
2017-08-31T21:07:29.364Z,8.85
2017-08-31T21:09:57.086Z,8.82
2017-08-31T21:12:24.976Z,9.88
2017-08-31T21:14:52.638Z,10.20
2017-08-31T21:17:20.327Z,11.05
2017-08-31T21:19:47.999Z,7.72
2017-08-31T21:22:15.772Z,8.80
2017-08-31T21:24:43.595Z,11.02
2017-08-31T21:27:11.369Z,9.85
2017-08-31T21:29:39.172Z,12.88
2017-08-31T21:32:07.024Z,11.38
2017-08-31T21:34:34.713Z,10.95
2017-08-31T21:37:02.436Z,12.27
2017-08-31T21:39:30.080Z,11.93
2017-08-31T21:41:57.932Z,11.20
2017-08-31T21:44:25.702Z,12.15
2017-08-31T21:46:53.332Z,9.70
2017-08-31T21:49:21.017Z,11.93
2017-08-31T21:51:48.750Z,9.90
2017-08-31T21:54:16.399Z,10.35
2017-08-31T21:56:44.064Z,11.12
2017-08-31T21:59:11.735Z,9.93
2017-08-31T22:01:39.413Z,12.10
2017-08-31T22:04:07.104Z,10.75
2017-08-31T22:06:34.908Z,12.30
2017-08-31T22:09:02.561Z,10.57
2017-08-31T22:11:30.341Z,10.10
2017-08-31T22:13:58.074Z,9.15
2017-08-31T22:16:25.751Z,12.88
2017-08-31T22:18:53.420Z,10.10
2017-08-31T22:21:21.048Z,12.02
2017-08-31T22:23:48.680Z,10.45
2017-08-31T22:26:16.347Z,11.50
2017-08-31T22:28:44.053Z,9.65
2017-08-31T22:31:11.679Z,10.80
2017-08-31T22:33:39.340Z,10.00
2017-08-31T22:36:06.988Z,11.90
2017-08-31T22:38:34.637Z,13.40
2017-08-31T22:41:02.312Z,14.02
2017-08-31T22:43:29.994Z,11.43
2017-08-31T22:45:57.641Z,12.55
2017-08-31T22:48:25.312Z,14.55
2017-08-31T22:50:52.964Z,12.15
2017-08-31T22:53:20.603Z,12.60
2017-08-31T22:55:48.283Z,12.32
2017-08-31T22:58:15.921Z,12.02
2017-08-31T23:00:43.563Z,13.00
2017-08-31T23:03:11.238Z,13.00
2017-08-31T23:05:38.889Z,11.25
2017-08-31T23:08:06.542Z,12.07
2017-08-31T23:10:34.207Z,12.37
2017-08-31T23:13:01.890Z,11.10
2017-08-31T23:15:29.560Z,10.55
2017-08-31T23:17:57.241Z,11.00
2017-08-31T23:20:24.876Z,10.73
2017-08-31T23:22:52.521Z,12.73
2017-08-31T23:25:20.200Z,12.63
2017-08-31T23:27:47.879Z,11.05
2017-08-31T23:30:15.520Z,12.93
2017-08-31T23:32:43.191Z,16.27
2017-08-31T23:35:10.843Z,15.32
2017-08-31T23:37:38.492Z,10.98
2017-08-31T23:40:06.170Z,11.75
2017-08-31T23:42:33.807Z,13.65
2017-08-31T23:45:01.484Z,10.05
2017-08-31T23:47:29.150Z,11.45
2017-08-31T23:49:56.791Z,11.60
2017-08-31T23:52:24.433Z,11.02
2017-08-31T23:54:52.109Z,12.77
2017-08-31T23:57:19.758Z,12.85
2017-08-31T23:59:47.398Z,14.23
